sensor_id;sensor_type;location;lat;lon;timestamp;pressure;altitude;pressure_sealevel;temperature;humidity
56074;BME280;41950;55.840;37.442;2023-03-04T00:01:59;97951.28;;;-1.87;80.89
56074;BME280;41950;55.840;37.442;2023-03-04T00:04:25;97884.16;;;-2.25;80.99
56074;BME280;41950;55.840;37.442;2023-03-04T00:06:51;97954.72;;;-1.74;81.15
56074;BME280;41950;55.840;37.442;2023-03-04T00:09:16;97958.94;;;-1.76;81.08
56074;BME280;41950;55.840;37.442;2023-03-04T00:11:42;97936.88;;;-1.84;81.16
56074;BME280;41950;55.840;37.442;2023-03-04T00:14:08;97936.88;;;-1.86;81.23
56074;BME280;41950;55.840;37.442;2023-03-04T00:16:33;97954.72;;;-1.74;81.23
56074;BME280;41950;55.840;37.442;2023-03-04T00:18:59;97908.00;;;-1.97;81.35
56074;BME280;41950;55.840;37.442;2023-03-04T00:21:25;97912.28;;;-1.92;81.44
56074;BME280;41950;55.840;37.442;2023-03-04T00:23:50;97930.94;;;-1.85;81.58
56074;BME280;41950;55.840;37.442;2023-03-04T00:26:16;97947.91;;;-1.79;81.80
56074;BME280;41950;55.840;37.442;2023-03-04T00:28:42;97909.69;;;-2.04;82.05
56074;BME280;41950;55.840;37.442;2023-03-04T00:31:08;97954.72;;;-1.71;81.87
56074;BME280;41950;55.840;37.442;2023-03-04T00:33:35;97953.88;;;-1.68;81.73
56074;BME280;41950;55.840;37.442;2023-03-04T00:36:03;97942.88;;;-1.66;81.60
56074;BME280;41950;55.840;37.442;2023-03-04T00:38:29;97938.59;;;-1.73;81.48
56074;BME280;41950;55.840;37.442;2023-03-04T00:40:55;97927.59;;;-1.75;81.49
56074;BME280;41950;55.840;37.442;2023-03-04T00:43:21;97903.84;;;-1.83;81.40
56074;BME280;41950;55.840;37.442;2023-03-04T00:45:47;97933.56;;;-1.62;81.39
56074;BME280;41950;55.840;37.442;2023-03-04T00:48:12;97889.38;;;-1.95;81.34
56074;BME280;41950;55.840;37.442;2023-03-04T00:50:38;97935.22;;;-1.69;81.58
56074;BME280;41950;55.840;37.442;2023-03-04T00:53:04;97934.38;;;-1.66;81.61
56074;BME280;41950;55.840;37.442;2023-03-04T00:55:30;97882.59;;;-1.97;81.61
56074;BME280;41950;55.840;37.442;2023-03-04T00:57:56;97929.28;;;-1.68;81.65
56074;BME280;41950;55.840;37.442;2023-03-04T01:00:22;97930.13;;;-1.72;81.76
56074;BME280;41950;55.840;37.442;2023-03-04T01:02:47;97935.22;;;-1.78;81.76
56074;BME280;41950;55.840;37.442;2023-03-04T01:05:13;97856.22;;;-2.27;82.06
56074;BME280;41950;55.840;37.442;2023-03-04T01:07:39;97921.63;;;-1.89;82.51
56074;BME280;41950;55.840;37.442;2023-03-04T01:10:13;97921.56;;;-1.95;82.85
56074;BME280;41950;55.840;37.442;2023-03-04T01:12:39;97919.88;;;-1.99;83.04
56074;BME280;41950;55.840;37.442;2023-03-04T01:15:07;97916.47;;;-1.95;83.11
56074;BME280;41950;55.840;37.442;2023-03-04T01:17:33;97869.78;;;-2.20;83.10
56074;BME280;41950;55.840;37.442;2023-03-04T01:19:59;97919.09;;;-1.86;82.95
56074;BME280;41950;55.840;37.442;2023-03-04T01:22:24;97924.16;;;-1.88;83.10
56074;BME280;41950;55.840;37.442;2023-03-04T01:24:50;97910.63;;;-1.83;83.00
56074;BME280;41950;55.840;37.442;2023-03-04T01:27:16;97903.81;;;-1.89;83.30
56074;BME280;41950;55.840;37.442;2023-03-04T01:29:41;97916.56;;;-1.75;82.43
56074;BME280;41950;55.840;37.442;2023-03-04T01:32:07;97826.53;;;-2.34;82.71
56074;BME280;41950;55.840;37.442;2023-03-04T01:34:33;97880.88;;;-2.03;82.86
56074;BME280;41950;55.840;37.442;2023-03-04T01:36:58;97914.84;;;-1.89;83.01
56074;BME280;41950;55.840;37.442;2023-03-04T01:39:24;97836.72;;;-2.31;82.94
56074;BME280;41950;55.840;37.442;2023-03-04T01:41:50;97904.69;;;-1.84;83.07
56074;BME280;41950;55.840;37.442;2023-03-04T01:44:16;97901.31;;;-1.78;83.17
56074;BME280;41950;55.840;37.442;2023-03-04T01:46:46;97861.41;;;-1.96;82.98
56074;BME280;41950;55.840;37.442;2023-03-04T01:49:14;97887.75;;;-1.76;82.98
56074;BME280;41950;55.840;37.442;2023-03-04T01:51:47;97835.09;;;-2.09;82.92
56074;BME280;41950;55.840;37.442;2023-03-04T01:54:15;97878.41;;;-1.81;83.10
56074;BME280;41950;55.840;37.442;2023-03-04T01:56:43;97841.91;;;-2.00;82.96
56074;BME280;41950;55.840;37.442;2023-03-04T02:01:38;97856.34;;;-1.90;83.00
56074;BME280;41950;55.840;37.442;2023-03-04T02:04:05;97830.88;;;-2.05;83.03
56074;BME280;41950;55.840;37.442;2023-03-04T02:06:33;97826.66;;;-2.03;83.01
56074;BME280;41950;55.840;37.442;2023-03-04T02:08:59;97796.94;;;-2.23;83.01
56074;BME280;41950;55.840;37.442;2023-03-04T02:11:25;97851.22;;;-2.01;82.85
56074;BME280;41950;55.840;37.442;2023-03-04T02:13:51;97846.13;;;-2.13;83.30
56074;BME280;41950;55.840;37.442;2023-03-04T02:16:18;97815.56;;;-2.25;83.39
56074;BME280;41950;55.840;37.442;2023-03-04T02:18:43;97738.38;;;-2.70;83.50
56074;BME280;41950;55.840;37.442;2023-03-04T02:26:20;97835.97;;;-2.07;84.01
56074;BME280;41950;55.840;37.442;2023-03-04T02:28:48;97760.41;;;-2.55;84.20
56074;BME280;41950;55.840;37.442;2023-03-04T02:33:53;97835.13;;;-2.06;84.18
56074;BME280;41950;55.840;37.442;2023-03-04T02:36:21;97834.28;;;-2.03;84.19
56074;BME280;41950;55.840;37.442;2023-03-04T02:38:49;97833.44;;;-2.05;84.17
56074;BME280;41950;55.840;37.442;2023-03-04T02:41:17;97833.44;;;-2.05;84.31
56074;BME280;41950;55.840;37.442;2023-03-04T02:43:46;97807.09;;;-2.20;84.45
56074;BME280;41950;55.840;37.442;2023-03-04T02:46:12;97817.31;;;-2.10;84.55
56074;BME280;41950;55.840;37.442;2023-03-04T02:48:39;97774.03;;;-2.32;84.41
56074;BME280;41950;55.840;37.442;2023-03-04T02:51:05;97810.56;;;-2.05;84.36
56074;BME280;41950;55.840;37.442;2023-03-04T02:53:31;97791.03;;;-2.17;84.37
56074;BME280;41950;55.840;37.442;2023-03-04T02:55:57;97813.91;;;-2.12;84.76
56074;BME280;41950;55.840;37.442;2023-03-04T02:58:22;97730.78;;;-2.58;84.70
56074;BME280;41950;55.840;37.442;2023-03-04T03:00:48;97802.06;;;-2.16;84.82
56074;BME280;41950;55.840;37.442;2023-03-04T03:03:13;97793.59;;;-2.17;84.77
56074;BME280;41950;55.840;37.442;2023-03-04T03:05:39;97743.50;;;-2.47;84.75
56074;BME280;41950;55.840;37.442;2023-03-04T03:08:05;97752.81;;;-2.52;84.84
56074;BME280;41950;55.840;37.442;2023-03-04T03:10:31;97798.59;;;-2.31;84.95
56074;BME280;41950;55.840;37.442;2023-03-04T03:12:57;97735.78;;;-2.74;85.27
56074;BME280;41950;55.840;37.442;2023-03-04T03:15:23;97803.66;;;-2.40;85.14
56074;BME280;41950;55.840;37.442;2023-03-04T03:17:49;97752.69;;;-2.80;85.61
56074;BME280;41950;55.840;37.442;2023-03-04T03:20:15;97757.75;;;-2.87;85.87
56074;BME280;41950;55.840;37.442;2023-03-04T03:22:41;97769.59;;;-2.82;86.31
56074;BME280;41950;55.840;37.442;2023-03-04T03:25:07;97737.38;;;-3.01;86.50
56074;BME280;41950;55.840;37.442;2023-03-04T03:27:33;97784.91;;;-2.71;86.87
56074;BME280;41950;55.840;37.442;2023-03-04T03:29:59;97770.47;;;-2.75;86.97
56074;BME280;41950;55.840;37.442;2023-03-04T03:32:25;97767.91;;;-2.83;87.17
56074;BME280;41950;55.840;37.442;2023-03-04T03:34:51;97780.63;;;-2.75;87.39
56074;BME280;41950;55.840;37.442;2023-03-04T03:37:17;97706.00;;;-3.17;87.33
56074;BME280;41950;55.840;37.442;2023-03-04T03:39:43;97749.28;;;-2.86;87.34
56074;BME280;41950;55.840;37.442;2023-03-04T03:42:09;97677.22;;;-3.26;87.51
56074;BME280;41950;55.840;37.442;2023-03-04T03:44:34;97749.28;;;-2.85;87.52
56074;BME280;41950;55.840;37.442;2023-03-04T03:47:01;97740.84;;;-2.81;87.52
56074;BME280;41950;55.840;37.442;2023-03-04T03:49:27;97717.13;;;-2.87;87.26
56074;BME280;41950;55.840;37.442;2023-03-04T03:51:53;97752.78;;;-2.60;87.06
56074;BME280;41950;55.840;37.442;2023-03-04T03:54:19;97673.03;;;-3.09;86.95
56074;BME280;41950;55.840;37.442;2023-03-04T03:56:44;97728.16;;;-2.81;86.67
56074;BME280;41950;55.840;37.442;2023-03-04T03:59:10;97743.44;;;-2.67;87.06
56074;BME280;41950;55.840;37.442;2023-03-04T04:01:36;97736.69;;;-2.60;87.03
56074;BME280;41950;55.840;37.442;2023-03-04T04:04:02;97694.31;;;-2.75;86.76
56074;BME280;41950;55.840;37.442;2023-03-04T04:06:28;97681.59;;;-2.83;86.75
56074;BME280;41950;55.840;37.442;2023-03-04T04:08:54;97606.13;;;-3.34;86.65
56074;BME280;41950;55.840;37.442;2023-03-04T04:11:20;97726.50;;;-2.72;86.89
56074;BME280;41950;55.840;37.442;2023-03-04T04:13:45;97669.66;;;-3.08;87.13
56074;BME280;41950;55.840;37.442;2023-03-04T04:16:11;97692.59;;;-2.88;87.34
56074;BME280;41950;55.840;37.442;2023-03-04T04:18:37;97646.81;;;-3.06;87.47
56074;BME280;41950;55.840;37.442;2023-03-04T04:21:03;97705.38;;;-2.67;87.44
56074;BME280;41950;55.840;37.442;2023-03-04T04:23:29;97698.59;;;-2.63;87.32
56074;BME280;41950;55.840;37.442;2023-03-04T04:25:56;97688.44;;;-2.60;87.49
56074;BME280;41950;55.840;37.442;2023-03-04T04:28:22;97664.75;;;-2.71;87.31
56074;BME280;41950;55.840;37.442;2023-03-04T04:30:48;97663.03;;;-2.72;87.24
56074;BME280;41950;55.840;37.442;2023-03-04T04:33:14;97658.81;;;-2.73;87.32
56074;BME280;41950;55.840;37.442;2023-03-04T04:35:40;97659.63;;;-2.74;87.31
56074;BME280;41950;55.840;37.442;2023-03-04T04:38:06;97682.53;;;-2.53;87.31
56074;BME280;41950;55.840;37.442;2023-03-04T04:40:32;97694.44;;;-2.40;87.11
56074;BME280;41950;55.840;37.442;2023-03-04T04:42:58;97619.88;;;-2.69;86.96
56074;BME280;41950;55.840;37.442;2023-03-04T04:45:23;97673.22;;;-2.51;86.68
56074;BME280;41950;55.840;37.442;2023-03-04T04:47:54;97641.03;;;-2.70;86.90
56074;BME280;41950;55.840;37.442;2023-03-04T04:50:22;97652.06;;;-2.67;86.80
56074;BME280;41950;55.840;37.442;2023-03-04T04:52:48;97671.53;;;-2.47;86.63
56074;BME280;41950;55.840;37.442;2023-03-04T04:55:14;97691.06;;;-2.27;86.83
56074;BME280;41950;55.840;37.442;2023-03-04T04:57:39;97696.19;;;-2.17;86.33
56074;BME280;41950;55.840;37.442;2023-03-04T05:00:06;97658.03;;;-2.39;85.92
56074;BME280;41950;55.840;37.442;2023-03-04T05:02:32;97606.34;;;-2.59;85.94
56074;BME280;41950;55.840;37.442;2023-03-04T05:05:04;97688.53;;;-2.05;86.08
56074;BME280;41950;55.840;37.442;2023-03-04T05:07:30;97657.19;;;-2.01;85.86
56074;BME280;41950;55.840;37.442;2023-03-04T05:09:56;97668.22;;;-1.78;85.31
56074;BME280;41950;55.840;37.442;2023-03-04T05:12:22;97614.00;;;-2.04;85.16
56074;BME280;41950;55.840;37.442;2023-03-04T05:14:47;97673.28;;;-1.60;84.74
56074;BME280;41950;55.840;37.442;2023-03-04T05:17:13;97669.88;;;-1.56;84.35
56074;BME280;41950;55.840;37.442;2023-03-04T05:19:38;97669.03;;;-1.51;84.55
56074;BME280;41950;55.840;37.442;2023-03-04T05:22:04;97622.44;;;-1.72;84.22
56074;BME280;41950;55.840;37.442;2023-03-04T05:24:30;97619.88;;;-1.63;84.16
56074;BME280;41950;55.840;37.442;2023-03-04T05:26:56;97647.78;;;-1.38;83.90
56074;BME280;41950;55.840;37.442;2023-03-04T05:29:21;97613.91;;;-1.49;83.49
56074;BME280;41950;55.840;37.442;2023-03-04T05:31:47;97626.59;;;-1.36;82.90
56074;BME280;41950;55.840;37.442;2023-03-04T05:34:13;97600.34;;;-1.56;82.63
56074;BME280;41950;55.840;37.442;2023-03-04T05:36:38;97633.38;;;-1.36;82.60
56074;BME280;41950;55.840;37.442;2023-03-04T05:39:04;97666.38;;;-1.12;82.65
56074;BME280;41950;55.840;37.442;2023-03-04T05:41:30;97646.91;;;-1.22;82.09
56074;BME280;41950;55.840;37.442;2023-03-04T05:43:55;97658.75;;;-1.19;82.26
56074;BME280;41950;55.840;37.442;2023-03-04T05:46:21;97634.22;;;-1.34;82.37
56074;BME280;41950;55.840;37.442;2023-03-04T05:48:51;97632.56;;;-1.47;82.12
56074;BME280;41950;55.840;37.442;2023-03-04T05:51:18;97651.19;;;-1.36;82.34
56074;BME280;41950;55.840;37.442;2023-03-04T05:53:44;97644.41;;;-1.40;82.43
56074;BME280;41950;55.840;37.442;2023-03-04T05:56:12;97650.34;;;-1.41;82.57
56074;BME280;41950;55.840;37.442;2023-03-04T05:58:38;97652.03;;;-1.40;82.62
56074;BME280;41950;55.840;37.442;2023-03-04T06:01:04;97621.56;;;-1.56;82.62
56074;BME280;41950;55.840;37.442;2023-03-04T06:03:31;97620.69;;;-1.50;82.62
56074;BME280;41950;55.840;37.442;2023-03-04T06:05:57;97603.75;;;-1.52;82.49
56074;BME280;41950;55.840;37.442;2023-03-04T06:08:23;97634.19;;;-1.28;82.56
56074;BME280;41950;55.840;37.442;2023-03-04T06:10:52;97583.34;;;-1.43;82.30
56074;BME280;41950;55.840;37.442;2023-03-04T06:13:18;97632.41;;;-1.02;82.16
56074;BME280;41950;55.840;37.442;2023-03-04T06:15:43;97640.00;;;-0.91;81.97
56074;BME280;41950;55.840;37.442;2023-03-04T06:18:10;97629.75;;;-0.77;81.62
56074;BME280;41950;55.840;37.442;2023-03-04T06:20:36;97593.34;;;-0.98;80.98
56074;BME280;41950;55.840;37.442;2023-03-04T06:23:02;97585.69;;;-0.96;81.03
56074;BME280;41950;55.840;37.442;2023-03-04T06:25:28;97628.84;;;-0.67;80.77
56074;BME280;41950;55.840;37.442;2023-03-04T06:27:54;97622.03;;;-0.67;80.82
56074;BME280;41950;55.840;37.442;2023-03-04T06:30:20;97601.75;;;-0.79;80.93
56074;BME280;41950;55.840;37.442;2023-03-04T06:32:45;97611.00;;;-0.67;80.77
56074;BME280;41950;55.840;37.442;2023-03-04T06:35:13;97610.94;;;-0.53;80.72
56074;BME280;41950;55.840;37.442;2023-03-04T06:37:40;97615.97;;;-0.44;80.72
56074;BME280;41950;55.840;37.442;2023-03-04T06:40:06;97608.34;;;-0.49;80.04
56074;BME280;41950;55.840;37.442;2023-03-04T06:42:34;97564.38;;;-0.75;80.36
56074;BME280;41950;55.840;37.442;2023-03-04T06:45:00;97577.00;;;-0.62;80.17
56074;BME280;41950;55.840;37.442;2023-03-04T06:47:26;97597.22;;;-0.40;80.17
56074;BME280;41950;55.840;37.442;2023-03-04T06:49:52;97581.09;;;-0.41;80.06
56074;BME280;41950;55.840;37.442;2023-03-04T06:52:18;97588.59;;;-0.21;79.27
56074;BME280;41950;55.840;37.442;2023-03-04T06:54:43;97575.84;;;-0.19;78.86
56074;BME280;41950;55.840;37.442;2023-03-04T06:57:09;97586.75;;;-0.05;78.72
56074;BME280;41950;55.840;37.442;2023-03-04T06:59:37;97575.63;;;0.05;78.41
56074;BME280;41950;55.840;37.442;2023-03-04T07:02:03;97549.34;;;0.00;77.73
56074;BME280;41950;55.840;37.442;2023-03-04T07:04:29;97572.88;;;0.23;77.39
56074;BME280;41950;55.840;37.442;2023-03-04T07:06:54;97550.03;;;0.14;77.10
56074;BME280;41950;55.840;37.442;2023-03-04T07:09:20;97569.38;;;0.35;76.65
56074;BME280;41950;55.840;37.442;2023-03-04T07:11:46;97559.91;;;0.45;76.48
56074;BME280;41950;55.840;37.442;2023-03-04T07:14:12;97560.59;;;0.59;76.11
56074;BME280;41950;55.840;37.442;2023-03-04T07:16:37;97538.44;;;0.63;75.95
56074;BME280;41950;55.840;37.442;2023-03-04T07:19:03;97517.25;;;0.57;75.85
56074;BME280;41950;55.840;37.442;2023-03-04T07:21:29;97547.50;;;0.86;75.70
56074;BME280;41950;55.840;37.442;2023-03-04T07:23:54;97528.91;;;0.75;75.70
56074;BME280;41950;55.840;37.442;2023-03-04T07:26:20;97537.34;;;0.83;75.57
56074;BME280;41950;55.840;37.442;2023-03-04T07:28:46;97505.06;;;0.76;75.70
56074;BME280;41950;55.840;37.442;2023-03-04T07:31:19;97517.75;;;0.84;75.28
56074;BME280;41950;55.840;37.442;2023-03-04T07:33:49;97515.97;;;0.89;75.75
56074;BME280;41950;55.840;37.442;2023-03-04T07:36:15;97502.81;;;1.16;75.21
56074;BME280;41950;55.840;37.442;2023-03-04T07:38:47;97522.03;;;1.42;73.88
56074;BME280;41950;55.840;37.442;2023-03-04T07:41:14;97521.22;;;1.38;74.03
56074;BME280;41950;55.840;37.442;2023-03-04T07:43:43;97469.75;;;1.04;73.96
56074;BME280;41950;55.840;37.442;2023-03-04T07:46:26;97463.97;;;0.93;74.00
56074;BME280;41950;55.840;37.442;2023-03-04T07:48:54;97463.16;;;0.91;74.19
56074;BME280;41950;55.840;37.442;2023-03-04T07:51:22;97360.34;;;0.21;74.32
56074;BME280;41950;55.840;37.442;2023-03-04T07:53:50;97333.63;;;-0.16;74.68
56074;BME280;41950;55.840;37.442;2023-03-04T07:56:22;97512.69;;;0.78;75.13
56074;BME280;41950;55.840;37.442;2023-03-04T07:58:48;97409.75;;;0.14;75.21
56074;BME280;41950;55.840;37.442;2023-03-04T08:01:17;97351.59;;;-0.28;75.21
56074;BME280;41950;55.840;37.442;2023-03-04T08:03:44;97503.66;;;0.55;75.58
56074;BME280;41950;55.840;37.442;2023-03-04T08:06:13;97490.03;;;0.53;75.35
56074;BME280;41950;55.840;37.442;2023-03-04T08:08:39;97501.72;;;0.73;75.30
56074;BME280;41950;55.840;37.442;2023-03-04T08:11:08;97365.59;;;0.11;74.57
56074;BME280;41950;55.840;37.442;2023-03-04T08:13:34;97411.03;;;0.46;74.50
56074;BME280;41950;55.840;37.442;2023-03-04T08:16:00;97453.00;;;0.88;74.00
56074;BME280;41950;55.840;37.442;2023-03-04T08:18:26;97446.09;;;0.95;73.16
56074;BME280;41950;55.840;37.442;2023-03-04T08:20:52;97453.53;;;1.10;72.99
56074;BME280;41950;55.840;37.442;2023-03-04T08:23:18;97277.16;;;0.13;72.87
56074;BME280;41950;55.840;37.442;2023-03-04T08:25:44;97340.28;;;0.57;72.51
56074;BME280;41950;55.840;37.442;2023-03-04T08:28:10;97344.34;;;0.69;72.02
56074;BME280;41950;55.840;37.442;2023-03-04T08:30:38;97487.69;;;1.57;71.84
56074;BME280;41950;55.840;37.442;2023-03-04T08:33:04;97246.66;;;0.05;71.63
56074;BME280;41950;55.840;37.442;2023-03-04T08:35:31;97455.75;;;1.30;71.86
56074;BME280;41950;55.840;37.442;2023-03-04T08:37:56;97249.31;;;-0.04;72.33
56074;BME280;41950;55.840;37.442;2023-03-04T08:40:22;97314.00;;;0.50;71.84
56074;BME280;41950;55.840;37.442;2023-03-04T08:42:51;97360.13;;;0.93;71.35
56074;BME280;41950;55.840;37.442;2023-03-04T08:45:17;97168.00;;;-0.19;70.62
56074;BME280;41950;55.840;37.442;2023-03-04T08:47:43;97340.69;;;0.85;70.80
56074;BME280;41950;55.840;37.442;2023-03-04T08:50:09;97459.44;;;1.66;70.12
56074;BME280;41950;55.840;37.442;2023-03-04T08:52:35;97369.13;;;1.16;70.17
56074;BME280;41950;55.840;37.442;2023-03-04T08:55:01;97366.22;;;1.34;70.17
56074;BME280;41950;55.840;37.442;2023-03-04T08:57:29;97445.03;;;2.06;69.70
56074;BME280;41950;55.840;37.442;2023-03-04T08:59:55;97432.84;;;2.17;69.25
56074;BME280;41950;55.840;37.442;2023-03-04T09:02:20;97435.41;;;2.17;68.77
56074;BME280;41950;55.840;37.442;2023-03-04T09:04:46;97390.69;;;1.95;69.02
56074;BME280;41950;55.840;37.442;2023-03-04T09:07:12;97383.84;;;1.96;69.06
56074;BME280;41950;55.840;37.442;2023-03-04T09:09:38;97363.34;;;1.97;69.10
56074;BME280;41950;55.840;37.442;2023-03-04T09:12:04;97416.97;;;2.43;68.79
56074;BME280;41950;55.840;37.442;2023-03-04T09:14:30;97414.81;;;2.64;68.09
56074;BME280;41950;55.840;37.442;2023-03-04T09:16:57;97375.84;;;2.51;68.17
56074;BME280;41950;55.840;37.442;2023-03-04T09:19:23;97394.13;;;2.74;67.63
56074;BME280;41950;55.840;37.442;2023-03-04T09:21:52;97375.75;;;2.56;68.01
56074;BME280;41950;55.840;37.442;2023-03-04T09:24:19;97392.69;;;2.61;68.26
56074;BME280;41950;55.840;37.442;2023-03-04T09:26:49;97385.34;;;2.46;68.66
56074;BME280;41950;55.840;37.442;2023-03-04T09:29:14;97385.78;;;2.26;68.83
56074;BME280;41950;55.840;37.442;2023-03-04T09:31:41;97383.63;;;2.06;68.69
56074;BME280;41950;55.840;37.442;2023-03-04T09:34:10;97311.50;;;1.46;68.97
56074;BME280;41950;55.840;37.442;2023-03-04T09:36:36;97388.59;;;1.71;68.99
56074;BME280;41950;55.840;37.442;2023-03-04T09:39:06;97367.53;;;1.57;68.63
56074;BME280;41950;55.840;37.442;2023-03-04T09:41:58;97365.09;;;1.50;68.35
56074;BME280;41950;55.840;37.442;2023-03-04T09:44:26;97353.03;;;1.57;68.07
56074;BME280;41950;55.840;37.442;2023-03-04T09:46:54;97327.78;;;1.85;67.72
56074;BME280;41950;55.840;37.442;2023-03-04T09:49:24;97286.72;;;1.93;66.40
56074;BME280;41950;55.840;37.442;2023-03-04T09:54:54;97333.03;;;2.58;64.75
56074;BME280;41950;55.840;37.442;2023-03-04T09:57:28;97342.25;;;2.65;64.14
56074;BME280;41950;55.840;37.442;2023-03-04T10:02:51;97273.25;;;2.23;64.19
56074;BME280;41950;55.840;37.442;2023-03-04T10:05:23;97318.03;;;2.41;64.95
56074;BME280;41950;55.840;37.442;2023-03-04T10:10:50;97286.69;;;2.31;65.30
56074;BME280;41950;55.840;37.442;2023-03-04T10:13:28;97298.25;;;2.49;64.61
56074;BME280;41950;55.840;37.442;2023-03-04T10:15:58;97263.56;;;2.36;64.11
56074;BME280;41950;55.840;37.442;2023-03-04T10:18:36;97211.56;;;1.98;64.00
56074;BME280;41950;55.840;37.442;2023-03-04T10:21:11;97265.09;;;2.43;64.63
56074;BME280;41950;55.840;37.442;2023-03-04T10:23:41;97195.78;;;2.15;64.39
56074;BME280;41950;55.840;37.442;2023-03-04T10:26:16;97282.47;;;3.00;63.41
56074;BME280;41950;55.840;37.442;2023-03-04T10:28:45;97272.31;;;3.29;63.10
56074;BME280;41950;55.840;37.442;2023-03-04T10:33:57;97242.81;;;3.75;61.77
56074;BME280;41950;55.840;37.442;2023-03-04T10:39:07;97250.81;;;3.64;61.18
56074;BME280;41950;55.840;37.442;2023-03-04T10:41:34;97215.94;;;3.29;61.38
56074;BME280;41950;55.840;37.442;2023-03-04T10:46:47;97232.38;;;3.21;62.24
56074;BME280;41950;55.840;37.442;2023-03-04T10:49:16;97214.25;;;2.96;63.13
56074;BME280;41950;55.840;37.442;2023-03-04T10:51:51;97209.22;;;2.93;63.25
56074;BME280;41950;55.840;37.442;2023-03-04T10:54:24;97235.16;;;3.13;63.15
56074;BME280;41950;55.840;37.442;2023-03-04T10:57:02;97230.81;;;3.15;63.56
56074;BME280;41950;55.840;37.442;2023-03-04T11:00:19;97222.44;;;3.10;63.77
56074;BME280;41950;55.840;37.442;2023-03-04T11:02:48;97226.09;;;3.00;63.82
56074;BME280;41950;55.840;37.442;2023-03-04T11:07:48;97202.13;;;2.70;64.93
56074;BME280;41950;55.840;37.442;2023-03-04T11:10:18;97202.97;;;2.70;65.45
56074;BME280;41950;55.840;37.442;2023-03-04T11:13:16;97205.84;;;2.58;65.82
56074;BME280;41950;55.840;37.442;2023-03-04T11:16:01;97204.25;;;2.54;66.24
56074;BME280;41950;55.840;37.442;2023-03-04T11:18:43;97173.25;;;2.31;66.57
56074;BME280;41950;55.840;37.442;2023-03-04T11:21:18;97182.28;;;2.44;66.45
56074;BME280;41950;55.840;37.442;2023-03-04T11:23:55;97192.78;;;2.35;66.46
56074;BME280;41950;55.840;37.442;2023-03-04T11:26:37;97184.59;;;2.21;66.61
56074;BME280;41950;55.840;37.442;2023-03-04T11:29:13;97183.75;;;2.18;66.63
56074;BME280;41950;55.840;37.442;2023-03-04T11:31:46;97176.97;;;2.17;66.85
56074;BME280;41950;55.840;37.442;2023-03-04T11:34:53;97171.72;;;2.24;67.43
56074;BME280;41950;55.840;37.442;2023-03-04T11:40:08;97169.16;;;2.24;67.66
56074;BME280;41950;55.840;37.442;2023-03-04T11:45:11;97164.69;;;2.32;68.75
56074;BME280;41950;55.840;37.442;2023-03-04T11:47:43;97152.72;;;2.32;68.90
56074;BME280;41950;55.840;37.442;2023-03-04T11:50:27;97158.94;;;2.24;69.79
56074;BME280;41950;55.840;37.442;2023-03-04T11:55:45;97139.13;;;1.96;71.94
56074;BME280;41950;55.840;37.442;2023-03-04T12:01:24;97143.69;;;1.83;73.71
56074;BME280;41950;55.840;37.442;2023-03-04T12:04:16;97134.41;;;1.79;74.03
56074;BME280;41950;55.840;37.442;2023-03-04T12:07:21;97133.63;;;1.76;74.59
56074;BME280;41950;55.840;37.442;2023-03-04T12:20:41;97119.53;;;1.58;77.64
56074;BME280;41950;55.840;37.442;2023-03-04T12:28:56;97097.63;;;1.48;78.52
56074;BME280;41950;55.840;37.442;2023-03-04T12:31:44;97065.81;;;1.22;79.40
56074;BME280;41950;55.840;37.442;2023-03-04T12:41:02;97095.78;;;1.16;82.13
56074;BME280;41950;55.840;37.442;2023-03-04T12:44:05;97024.78;;;0.91;82.26
56074;BME280;41950;55.840;37.442;2023-03-04T12:49:37;96941.66;;;0.40;82.14
56074;BME280;41950;55.840;37.442;2023-03-04T12:54:50;97059.47;;;1.02;83.23
56074;BME280;41950;55.840;37.442;2023-03-04T12:57:19;97020.91;;;0.74;83.33
56074;BME280;41950;55.840;37.442;2023-03-04T13:09:04;97029.63;;;1.04;83.93
56074;BME280;41950;55.840;37.442;2023-03-04T13:11:45;96862.72;;;-0.08;83.37
56074;BME280;41950;55.840;37.442;2023-03-04T13:16:47;96992.84;;;0.72;84.07
56074;BME280;41950;55.840;37.442;2023-03-04T13:19:50;97023.94;;;0.91;84.62
56074;BME280;41950;55.840;37.442;2023-03-04T13:22:29;97017.88;;;0.97;84.85
56074;BME280;41950;55.840;37.442;2023-03-04T13:25:48;96933.06;;;0.44;84.91
56074;BME280;41950;55.840;37.442;2023-03-04T13:27:49;97012.75;;;0.97;84.67
56074;BME280;41950;55.840;37.442;2023-03-04T13:35:55;96994.69;;;1.04;84.01
56074;BME280;41950;55.840;37.442;2023-03-04T13:41:15;96985.00;;;0.83;85.10
56074;BME280;41950;55.840;37.442;2023-03-04T13:43:49;96965.63;;;0.73;86.21
56074;BME280;41950;55.840;37.442;2023-03-04T14:04:19;96921.75;;;0.57;86.34
56074;BME280;41950;55.840;37.442;2023-03-04T14:06:47;96946.84;;;0.75;86.86
56074;BME280;41950;55.840;37.442;2023-03-04T14:09:14;96945.16;;;0.74;87.31
56074;BME280;41950;55.840;37.442;2023-03-04T14:11:41;96943.56;;;0.70;87.28
56074;BME280;41950;55.840;37.442;2023-03-04T14:14:12;96940.97;;;0.72;87.44
56074;BME280;41950;55.840;37.442;2023-03-04T14:16:54;96940.97;;;0.72;87.63
56074;BME280;41950;55.840;37.442;2023-03-04T14:19:25;96930.69;;;0.75;87.67
56074;BME280;41950;55.840;37.442;2023-03-04T14:21:52;96915.63;;;0.64;87.67
56074;BME280;41950;55.840;37.442;2023-03-04T14:24:20;96895.41;;;0.55;87.53
56074;BME280;41950;55.840;37.442;2023-03-04T14:26:46;96899.63;;;0.57;87.67
56074;BME280;41950;55.840;37.442;2023-03-04T14:29:26;96924.75;;;0.74;87.44
56074;BME280;41950;55.840;37.442;2023-03-04T14:31:54;96894.53;;;0.56;87.73
56074;BME280;41950;55.840;37.442;2023-03-04T14:34:38;96900.44;;;0.58;87.53
56074;BME280;41950;55.840;37.442;2023-03-04T14:37:19;96889.44;;;0.54;87.78
56074;BME280;41950;55.840;37.442;2023-03-04T14:39:48;96900.53;;;0.55;88.21
56074;BME280;41950;55.840;37.442;2023-03-04T14:42:17;96900.59;;;0.50;87.74
56074;BME280;41950;55.840;37.442;2023-03-04T14:44:49;96861.09;;;0.29;88.36
56074;BME280;41950;55.840;37.442;2023-03-04T14:49:44;96843.56;;;0.14;89.02
56074;BME280;41950;55.840;37.442;2023-03-04T14:52:35;96902.34;;;0.48;89.43
56074;BME280;41950;55.840;37.442;2023-03-04T14:57:40;96883.84;;;0.39;90.16